Time;durP1;ratioP1;P1;durP2;ratioP2;P2;SDS_P1;SDS_P2;PMS_P1;PMS_P2;Temp;Humidity;BMP_temperature;BMP_pressure;BME280_temperature;BME280_humidity;BME280_pressure;Samples;Min_cycle;Max_cycle;Signal;HPM_P1;HPM_P2
2023/06/13 00:02:55;;;;;;;;;;;;;;;21.39;38.40;100194.84;41872938;28;20396;-72
2023/06/13 00:22:57;;;;;;;;;;;;;;;21.31;37.91;100176.19;41874648;28;19982;-73
2023/06/13 00:42:57;;;;;;;;;;;;;;;21.26;38.05;100155.47;41857239;28;19974;-73
2023/06/13 01:02:58;;;;;;;;;;;;;;;21.15;38.12;100143.19;41849817;28;19928;-72
2023/06/13 01:23:03;;;;;;;;;;;;;;;21.04;38.51;100122.16;41849300;28;19929;-72
2023/06/13 01:43:03;;;;;;;;;;;;;;;20.92;38.56;100108.19;41856272;28;20837;-73
2023/06/13 02:03:04;;;;;;;;;;;;;;;20.85;38.86;100109.66;41849877;28;19929;-72
2023/06/13 02:23:07;;;;;;;;;;;;;;;20.82;38.73;100104.66;41836330;28;20260;-76
2023/06/13 02:43:07;;;;;;;;;;;;;;;20.67;39.18;100089.09;41835562;28;20012;-71
2023/06/13 03:03:07;;;;;;;;;;;;;;;20.60;39.02;100095.81;41835341;28;19924;-72
2023/06/13 03:23:07;;;;;;;;;;;;;;;20.46;39.06;100096.91;41842443;28;20406;-71
2023/06/13 03:43:09;;;;;;;;;;;;;;;20.41;38.87;100102.53;41870953;28;20383;-71
2023/06/13 04:03:09;;;;;;;;;;;;;;;20.34;39.03;100103.13;41859145;28;19959;-71
2023/06/13 04:23:11;;;;;;;;;;;;;;;20.45;39.41;100114.47;41820543;28;20429;-70
2023/06/13 04:43:14;;;;;;;;;;;;;;;20.76;40.58;100122.59;41831767;28;19929;-76
2023/06/13 05:03:18;;;;;;;;;;;;;;;21.02;41.64;100114.41;41836376;28;24294;-72
2023/06/13 05:23:20;;;;;;;;;;;;;;;21.20;39.97;100124.38;41823747;28;20007;-71
2023/06/13 05:43:21;;;;;;;;;;;;;;;21.37;40.65;100121.22;41832041;28;19932;-70
2023/06/13 06:03:21;;;;;;;;;;;;;;;21.55;41.04;100121.47;41844354;28;19939;-72
2023/06/13 06:23:22;;;;;;;;;;;;;;;21.68;41.26;100129.25;41862516;28;19986;-77
2023/06/13 06:43:22;;;;;;;;;;;;;;;21.82;40.34;100114.88;41845613;28;21193;-74
2023/06/13 07:03:22;;;;;;;;;;;;;;;21.91;40.55;100098.31;41830722;28;20865;-73
2023/06/13 07:23:23;;;;;;;;;;;;;;;22.04;40.44;100094.63;41856206;28;19932;-73
2023/06/13 07:43:23;;;;;;;;;;;;;;;22.11;40.94;100073.84;41862108;28;19966;-72
2023/06/13 08:03:24;;;;;;;;;;;;;;;22.22;41.30;100068.47;41878589;28;22901;-73
2023/06/13 08:23:24;;;;;;;;;;;;;;;22.08;38.92;100061.72;41843285;28;19978;-74
2023/06/13 08:43:25;;;;;;;;;;;;;;;22.17;39.79;100058.31;41854786;28;19940;-74
2023/06/13 09:03:28;;;;;;;;;;;;;;;22.30;40.26;100038.78;41852967;28;19929;-73
2023/06/13 09:23:30;;;;;;;;;;;;;;;22.34;40.93;100048.91;41705831;28;20008;-73
2023/06/13 09:43:30;;;;;;;;;;;;;;;22.42;41.13;100031.63;41682356;28;19961;-77
2023/06/13 10:03:31;;;;;;;;;;;;;;;22.51;41.57;100036.91;41665140;28;19925;-74
2023/06/13 15:39:06;;;;;;;;;;;;;;;23.42;35.41;99842.94;42097978;27;2395870;-81
2023/06/13 15:59:17;;;;;;;;;;;;;;;23.54;33.92;99854.16;42072337;28;20002;-81
2023/06/13 16:19:17;;;;;;;;;;;;;;;23.60;34.79;99873.88;42066255;28;19935;-79
2023/06/13 16:39:18;;;;;;;;;;;;;;;23.60;34.06;99876.53;41965024;28;19939;-82
2023/06/13 16:59:18;;;;;;;;;;;;;;;23.57;30.46;99887.38;41971546;28;20040;-80
2023/06/13 17:19:21;;;;;;;;;;;;;;;23.46;30.60;99898.97;42007901;28;19996;-80
2023/06/13 17:39:21;;;;;;;;;;;;;;;23.38;32.04;99912.91;42041267;28;19935;-79
2023/06/13 17:59:21;;;;;;;;;;;;;;;23.24;32.31;99914.22;42036338;28;19947;-83
2023/06/13 18:19:23;;;;;;;;;;;;;;;23.22;33.16;99920.59;41980125;28;19936;-85
2023/06/13 18:39:23;;;;;;;;;;;;;;;23.02;33.57;99939.09;42022578;28;19985;-82
2023/06/13 18:59:23;;;;;;;;;;;;;;;22.90;33.56;99964.00;42052536;28;20405;-87
2023/06/13 19:19:24;;;;;;;;;;;;;;;22.84;33.81;99978.59;42021139;28;19931;-84
2023/06/13 19:39:24;;;;;;;;;;;;;;;23.00;35.00;99984.13;41990645;28;19932;-81
2023/06/13 19:59:24;;;;;;;;;;;;;;;23.04;35.93;99989.97;42005034;28;20384;-84
2023/06/13 20:19:25;;;;;;;;;;;;;;;23.05;36.58;99986.38;42042519;28;19934;-85
2023/06/13 20:39:27;;;;;;;;;;;;;;;23.07;37.46;99992.34;42064029;28;19978;-86
2023/06/13 20:59:28;;;;;;;;;;;;;;;23.08;37.34;99990.53;42096589;28;19931;-84
2023/06/13 21:19:30;;;;;;;;;;;;;;;23.11;39.07;99996.34;42054619;28;19978;-80
2023/06/13 21:39:31;;;;;;;;;;;;;;;23.15;39.60;100015.41;42018789;28;19982;-81
2023/06/13 21:59:31;;;;;;;;;;;;;;;23.14;39.47;100027.78;42017571;28;20017;-82
2023/06/13 22:19:32;;;;;;;;;;;;;;;23.12;39.78;100050.84;42041614;28;19924;-83
2023/06/13 22:39:32;;;;;;;;;;;;;;;23.12;39.80;100055.28;42021469;28;20360;-83
2023/06/13 22:59:32;;;;;;;;;;;;;;;23.09;40.11;100045.00;41998304;28;19940;-82
2023/06/13 23:19:32;;;;;;;;;;;;;;;23.06;40.57;100061.13;41985189;28;19935;-79
2023/06/13 23:39:33;;;;;;;;;;;;;;;23.03;40.50;100068.38;42004093;28;19951;-82
2023/06/13 23:59:33;;;;;;;;;;;;;;;23.02;40.65;100073.78;42011485;28;19932;-85
